Terminal Aerodrome Forecast
Issued by NWS

Home | Current Version | Previous Version | Text Only | Print | Product List | Glossary On
Versions: 1 2 3 4 5 6 7 8 9 10 11 12 13 14 15 16 17 18 19 20 21 22 23 24 25 26 27 28 29 30 31 32 33 34 35 36 37 38
590
FTUS46 KEKA 280427 AAA
TAFCEC
TAF AMD
KCEC 280427Z 2804/2824 18010KT 6SM BR SCT005
      TEMPO 2805/2806 5SM BR BKN005
     FM280600 36003KT 4SM BR OVC005
     FM281200 VRB03KT 1/2SM FG OVC003
     FM281800 17009KT 5SM BR OVC005
     FM282200 18011KT P6SM SCT007=

USA.gov is the U.S. government's official web portal to all federal, state and local government web resources and services.